Connexion S'enregistrer

Connexion à votre compte

Identifiant
Mot de passe
Maintenir la connexion active sur ce site

Créer un compte

Pour valider ce formulaire, vous devez remplir tous les champs.
Nom
Identifiant
Mot de passe
Répétez le mot de passe
Adresse e-mail
Répétez l'adresse e-mail

Nous contacter

 Téléphone : +33 (0)4 79 54 41 81

Coordonnées détaillées et accès : cliquez ici

 
LFLB °C
    Ferienhaus Ostsee
[source: ADDS]
METAR
LFLB 280430Z AUTO 00000KT CAVOK 15/14 Q1020 NOSIG =
TAF
TAF LFLB 272300Z 2800/2824 VRB02KT CAVOK TEMPO 2812/2817 FEW070 =
SR / SS: 03:52 / 19:15 UTC (Lever/Coucher du soleil le 2017-05-28)
JSN Boot template designed by JoomlaShine.com